CDA911 EDDM-EHAM
Flight info
| Callsign | CDA911 |
|---|---|
| Flight time | N/A |
| Altitude | 30000 |
| Route | GIVMI6Q/08L GIVMI Y101 IBAGA DCT MASEK DCT MAPOX DCT NORKU |
| Aircraft | A333/H-SDE2E3GIRWXY/LB1 |
Departure
| Time | 2026-04-30 18:09 |
|---|---|
| Airport | Munich Airport (EDDM) |
Arrival
| Time | N/A |
|---|---|
| Airport | Amsterdam Airport Schiphol (EHAM) |
| Time | Latitude | Longitude | Altitude | Speed | Heading |
|---|---|---|---|---|---|
| 2026-04-30 17:44 | 48.35352 | 11.79315 | 1466 ft | 0 kts | 261° |
| 2026-04-30 17:55 | 48.35362 | 11.79410 | 1459 ft | 3 kts | 261° |
| 2026-04-30 17:56 | 48.35353 | 11.79485 | 1459 ft | 0 kts | 357° |
| 2026-04-30 17:58 | 48.35355 | 11.79486 | 1459 ft | 1 kts | 1° |
| 2026-04-30 17:59 | 48.35400 | 11.79463 | 1462 ft | 7 kts | 353° |
| 2026-04-30 18:00 | 48.35751 | 11.79405 | 1467 ft | 17 kts | 354° |
| 2026-04-30 18:00 | 48.35995 | 11.79334 | 1464 ft | 9 kts | 355° |
| 2026-04-30 18:01 | 48.36020 | 11.79331 | 1469 ft | 0 kts | 355° |
| 2026-04-30 18:02 | 48.36081 | 11.79290 | 1467 ft | 5 kts | 296° |
| 2026-04-30 18:03 | 48.36070 | 11.79021 | 1468 ft | 13 kts | 265° |
| 2026-04-30 18:04 | 48.36026 | 11.78483 | 1465 ft | 21 kts | 263° |
| 2026-04-30 18:05 | 48.35947 | 11.77450 | 1461 ft | 27 kts | 264° |
| 2026-04-30 18:06 | 48.36094 | 11.76640 | 1468 ft | 15 kts | 359° |
| 2026-04-30 18:07 | 48.36195 | 11.76721 | 1460 ft | 14 kts | 37° |
| 2026-04-30 18:08 | 48.36400 | 11.78250 | 1466 ft | 141 kts | 82° |
| 2026-04-30 18:09 | 48.37733 | 11.86344 | 3294 ft | 224 kts | 39° |
| 2026-04-30 18:10 | 48.43754 | 11.83433 | 5002 ft | 267 kts | 313° |
| 2026-04-30 18:11 | 48.48541 | 11.74763 | 7599 ft | 272 kts | 313° |
| 2026-04-30 18:11 | 48.51784 | 11.67654 | 9462 ft | 284 kts | 288° |
| 2026-04-30 18:12 | 48.53113 | 11.58833 | 11155 ft | 293 kts | 284° |
| 2026-04-30 18:13 | 48.54563 | 11.53121 | 12202 ft | 291 kts | 313° |
| 2026-04-30 18:13 | 48.58656 | 11.47931 | 13639 ft | 290 kts | 330° |
| 2026-04-30 18:14 | 48.62609 | 11.44048 | 14799 ft | 293 kts | 333° |
| 2026-04-30 18:15 | 48.67762 | 11.38914 | 16203 ft | 298 kts | 332° |
| 2026-04-30 18:15 | 48.73174 | 11.33410 | 16936 ft | 337 kts | 332° |
| 2026-04-30 18:16 | 48.76739 | 11.28239 | 17390 ft | 379 kts | 307° |
| 2026-04-30 18:16 | 48.79822 | 11.21595 | 18345 ft | 388 kts | 314° |
| 2026-04-30 18:17 | 48.81542 | 11.18430 | 18872 ft | 390 kts | 315° |
| 2026-04-30 18:17 | 48.83324 | 11.15323 | 19376 ft | 391 kts | 317° |
| 2026-04-30 18:17 | 48.86967 | 11.09211 | 20421 ft | 394 kts | 318° |
| 2026-04-30 18:18 | 48.88828 | 11.06141 | 20944 ft | 396 kts | 318° |
| 2026-04-30 18:18 | 48.90702 | 11.03060 | 21432 ft | 398 kts | 318° |
| 2026-04-30 18:18 | 48.92589 | 10.99963 | 21889 ft | 401 kts | 318° |
| 2026-04-30 18:18 | 48.94490 | 10.96842 | 22343 ft | 404 kts | 318° |
| 2026-04-30 18:19 | 48.96404 | 10.93700 | 22865 ft | 405 kts | 317° |
| 2026-04-30 18:19 | 48.98334 | 10.90574 | 23389 ft | 405 kts | 321° |
| 2026-04-30 18:19 | 49.00596 | 10.88122 | 23872 ft | 396 kts | 339° |
| 2026-04-30 18:19 | 49.03139 | 10.86733 | 24280 ft | 393 kts | 348° |
| 2026-04-30 18:20 | 49.05797 | 10.85765 | 24667 ft | 393 kts | 353° |
| 2026-04-30 18:20 | 49.08500 | 10.85110 | 25045 ft | 394 kts | 357° |
| 2026-04-30 18:20 | 49.11228 | 10.84640 | 25438 ft | 396 kts | 358° |
| 2026-04-30 18:20 | 49.13971 | 10.84181 | 25845 ft | 398 kts | 358° |
| 2026-04-30 18:21 | 49.16729 | 10.83713 | 26248 ft | 400 kts | 358° |
| 2026-04-30 18:21 | 49.19500 | 10.83233 | 26640 ft | 402 kts | 358° |
| 2026-04-30 18:21 | 49.22282 | 10.82739 | 27000 ft | 404 kts | 358° |
| 2026-04-30 18:21 | 49.25084 | 10.82228 | 27370 ft | 406 kts | 358° |
| 2026-04-30 18:22 | 49.27865 | 10.81712 | 27706 ft | 409 kts | 358° |
| 2026-04-30 18:22 | 49.33546 | 10.80858 | 28488 ft | 412 kts | 0° |
| 2026-04-30 18:22 | 49.36410 | 10.80466 | 28868 ft | 414 kts | 0° |
| 2026-04-30 18:23 | 49.39282 | 10.80065 | 29244 ft | 416 kts | 0° |
| 2026-04-30 18:23 | 49.42173 | 10.79652 | 29607 ft | 418 kts | 0° |
| 2026-04-30 18:23 | 49.45081 | 10.79228 | 29980 ft | 421 kts | 0° |
| 2026-04-30 18:23 | 49.48002 | 10.78795 | 30268 ft | 423 kts | 359° |
| 2026-04-30 18:24 | 49.53552 | 10.75784 | 30383 ft | 434 kts | 330° |
| 2026-04-30 18:24 | 49.55723 | 10.72576 | 30385 ft | 444 kts | 316° |
| 2026-04-30 18:25 | 49.59500 | 10.64954 | 30374 ft | 449 kts | 313° |
| 2026-04-30 18:25 | 49.65224 | 10.53526 | 30379 ft | 448 kts | 314° |
| 2026-04-30 18:26 | 49.70982 | 10.42225 | 30381 ft | 448 kts | 314° |
| 2026-04-30 18:27 | 49.76774 | 10.30852 | 30376 ft | 449 kts | 314° |
| 2026-04-30 18:28 | 49.82555 | 10.19457 | 30379 ft | 449 kts | 314° |
| 2026-04-30 18:28 | 49.88326 | 10.08035 | 30373 ft | 449 kts | 313° |
| 2026-04-30 18:29 | 49.95984 | 9.92802 | 30374 ft | 450 kts | 313° |
| 2026-04-30 18:30 | 50.03657 | 9.77447 | 30375 ft | 449 kts | 313° |
| 2026-04-30 18:31 | 50.09359 | 9.65980 | 30371 ft | 449 kts | 312° |
| 2026-04-30 18:32 | 50.15070 | 9.54443 | 30365 ft | 448 kts | 311° |
| 2026-04-30 18:33 | 50.20773 | 9.42873 | 30365 ft | 448 kts | 311° |
| 2026-04-30 18:33 | 50.26436 | 9.31331 | 30366 ft | 448 kts | 311° |
| 2026-04-30 18:34 | 50.32114 | 9.19710 | 30369 ft | 448 kts | 311° |
| 2026-04-30 18:35 | 50.35889 | 9.11955 | 30357 ft | 448 kts | 310° |
| 2026-04-30 18:35 | 50.39657 | 9.04190 | 30356 ft | 448 kts | 310° |
| 2026-04-30 18:36 | 50.45274 | 8.92574 | 30359 ft | 448 kts | 310° |
| 2026-04-30 18:37 | 50.50907 | 8.80873 | 30359 ft | 448 kts | 310° |
| 2026-04-30 18:37 | 50.54658 | 8.73051 | 30350 ft | 448 kts | 310° |
| 2026-04-30 18:38 | 50.58396 | 8.65233 | 30364 ft | 447 kts | 310° |
| 2026-04-30 18:38 | 50.62096 | 8.57472 | 30356 ft | 446 kts | 310° |
| 2026-04-30 18:39 | 50.65814 | 8.49651 | 30366 ft | 446 kts | 310° |
| 2026-04-30 18:39 | 50.69528 | 8.41814 | 30346 ft | 446 kts | 309° |
| 2026-04-30 18:40 | 50.73239 | 8.33960 | 30341 ft | 447 kts | 309° |
| 2026-04-30 18:40 | 50.76950 | 8.26081 | 30352 ft | 447 kts | 309° |
| 2026-04-30 18:41 | 50.80632 | 8.18242 | 30346 ft | 447 kts | 309° |
| 2026-04-30 18:41 | 50.84333 | 8.10338 | 30349 ft | 447 kts | 309° |
| 2026-04-30 18:42 | 50.88030 | 8.02421 | 30351 ft | 447 kts | 309° |
| 2026-04-30 18:42 | 50.93561 | 7.90546 | 30354 ft | 446 kts | 309° |
| 2026-04-30 18:45 | 51.13742 | 7.46906 | 30340 ft | 446 kts | 308° |
| 2026-04-30 18:46 | 51.17409 | 7.38925 | 30334 ft | 446 kts | 308° |
| 2026-04-30 18:46 | 51.21074 | 7.30931 | 30340 ft | 446 kts | 308° |
| 2026-04-30 18:47 | 51.24707 | 7.22988 | 30329 ft | 446 kts | 308° |
| 2026-04-30 18:47 | 51.28368 | 7.14974 | 30322 ft | 446 kts | 308° |
| 2026-04-30 18:48 | 51.32055 | 7.06966 | 30324 ft | 448 kts | 308° |
| 2026-04-30 18:48 | 51.35760 | 6.98941 | 30330 ft | 448 kts | 310° |
| 2026-04-30 18:48 | 51.37955 | 6.95459 | 30328 ft | 443 kts | 326° |
| 2026-04-30 18:49 | 51.40652 | 6.93173 | 30330 ft | 437 kts | 343° |
| 2026-04-30 18:49 | 51.43600 | 6.92181 | 30336 ft | 433 kts | 355° |
| 2026-04-30 18:49 | 51.46600 | 6.91760 | 30327 ft | 433 kts | 358° |
| 2026-04-30 18:50 | 51.52584 | 6.91098 | 30299 ft | 434 kts | 358° |
| 2026-04-30 18:50 | 51.55592 | 6.90767 | 29631 ft | 434 kts | 358° |
| 2026-04-30 18:50 | 51.58621 | 6.90434 | 28803 ft | 438 kts | 358° |
| 2026-04-30 18:50 | 51.61659 | 6.90098 | 28122 ft | 437 kts | 358° |
| 2026-04-30 18:51 | 51.64684 | 6.89754 | 27535 ft | 435 kts | 358° |
| 2026-04-30 18:51 | 51.67695 | 6.89411 | 26978 ft | 432 kts | 358° |
| 2026-04-30 18:51 | 51.70682 | 6.89070 | 26513 ft | 428 kts | 358° |
| 2026-04-30 18:51 | 51.73648 | 6.88724 | 26360 ft | 428 kts | 358° |
| 2026-04-30 18:52 | 51.76620 | 6.88378 | 26335 ft | 429 kts | 358° |
| 2026-04-30 18:52 | 51.79594 | 6.88035 | 26336 ft | 429 kts | 358° |
| 2026-04-30 18:52 | 51.82567 | 6.87687 | 26345 ft | 429 kts | 358° |
| 2026-04-30 18:52 | 51.85500 | 6.87346 | 26345 ft | 428 kts | 358° |
| 2026-04-30 18:53 | 51.88479 | 6.87002 | 26343 ft | 428 kts | 358° |
| 2026-04-30 18:53 | 51.91448 | 6.86646 | 26348 ft | 428 kts | 358° |
| 2026-04-30 18:53 | 51.94422 | 6.86295 | 26348 ft | 428 kts | 358° |
| 2026-04-30 18:53 | 51.97396 | 6.85948 | 26350 ft | 428 kts | 358° |
| 2026-04-30 18:54 | 52.00371 | 6.85591 | 26348 ft | 429 kts | 357° |
| 2026-04-30 18:54 | 52.03347 | 6.85247 | 26343 ft | 430 kts | 358° |
| 2026-04-30 18:54 | 52.06333 | 6.84909 | 26347 ft | 430 kts | 359° |
| 2026-04-30 18:54 | 52.09317 | 6.84559 | 26346 ft | 430 kts | 358° |
| 2026-04-30 18:55 | 52.12305 | 6.84223 | 26348 ft | 430 kts | 358° |
| 2026-04-30 18:55 | 52.18241 | 6.83558 | 26353 ft | 431 kts | 358° |
| 2026-04-30 18:55 | 52.21229 | 6.83224 | 26350 ft | 431 kts | 358° |
| 2026-04-30 18:56 | 52.27206 | 6.82551 | 26351 ft | 431 kts | 358° |
| 2026-04-30 18:56 | 52.30196 | 6.82217 | 26349 ft | 430 kts | 358° |
| 2026-04-30 18:56 | 52.33184 | 6.81888 | 26351 ft | 430 kts | 358° |
| 2026-04-30 18:57 | 52.39162 | 6.81227 | 26355 ft | 431 kts | 358° |
| 2026-04-30 18:57 | 52.42152 | 6.80906 | 26353 ft | 430 kts | 359° |
| 2026-04-30 18:57 | 52.45139 | 6.80570 | 26353 ft | 431 kts | 358° |
| 2026-04-30 18:58 | 52.51121 | 6.79919 | 26359 ft | 431 kts | 358° |
| 2026-04-30 18:58 | 52.54111 | 6.79583 | 26356 ft | 431 kts | 358° |
| 2026-04-30 18:58 | 52.57061 | 6.79262 | 26356 ft | 431 kts | 358° |
| 2026-04-30 18:59 | 52.63038 | 6.78614 | 26358 ft | 430 kts | 358° |
| 2026-04-30 19:00 | 52.72002 | 6.77643 | 26367 ft | 430 kts | 359° |
| 2026-04-30 19:00 | 52.74994 | 6.77318 | 26364 ft | 430 kts | 358° |
| 2026-04-30 19:00 | 52.80969 | 6.76664 | 26370 ft | 431 kts | 358° |
| 2026-04-30 19:01 | 52.86901 | 6.76001 | 26168 ft | 429 kts | 358° |
| 2026-04-30 19:01 | 52.89897 | 6.75556 | 25241 ft | 440 kts | 355° |
| 2026-04-30 19:02 | 52.96224 | 6.73772 | 17205 ft | 463 kts | 350° |
| 2026-04-30 19:02 | 53.01281 | 6.71414 | 3849 ft | 416 kts | 344° |
| 2026-04-30 19:03 | 53.01454 | 6.71325 | 3650 ft | 416 kts | 344° |